sensor_id;sensor_type;location;lat;lon;timestamp;temperature;humidity
8872;DHT22;4472;52.092;9.820;2023-06-05T00:01:21;10.20;99.90
8872;DHT22;4472;52.092;9.820;2023-06-05T00:04:08;10.20;99.90
8872;DHT22;4472;52.092;9.820;2023-06-05T00:06:55;10.20;99.90
8872;DHT22;4472;52.092;9.820;2023-06-05T00:09:43;10.20;99.90
8872;DHT22;4472;52.092;9.820;2023-06-05T00:12:30;10.20;99.90
8872;DHT22;4472;52.092;9.820;2023-06-05T00:15:18;10.20;99.90
8872;DHT22;4472;52.092;9.820;2023-06-05T00:18:05;10.20;99.90
8872;DHT22;4472;52.092;9.820;2023-06-05T00:20:54;10.20;99.90
8872;DHT22;4472;52.092;9.820;2023-06-05T00:23:41;10.10;99.90
8872;DHT22;4472;52.092;9.820;2023-06-05T00:26:29;10.00;99.90
8872;DHT22;4472;52.092;9.820;2023-06-05T00:29:16;10.00;99.90
8872;DHT22;4472;52.092;9.820;2023-06-05T00:32:05;9.90;99.90
8872;DHT22;4472;52.092;9.820;2023-06-05T00:34:52;9.90;99.90
8872;DHT22;4472;52.092;9.820;2023-06-05T00:37:39;9.90;99.90
8872;DHT22;4472;52.092;9.820;2023-06-05T00:40:26;9.80;99.90
8872;DHT22;4472;52.092;9.820;2023-06-05T00:43:13;9.80;99.90
8872;DHT22;4472;52.092;9.820;2023-06-05T00:46:02;9.80;99.90
8872;DHT22;4472;52.092;9.820;2023-06-05T00:48:51;9.80;99.90
8872;DHT22;4472;52.092;9.820;2023-06-05T00:51:40;9.70;99.90
8872;DHT22;4472;52.092;9.820;2023-06-05T00:54:28;9.60;99.90
8872;DHT22;4472;52.092;9.820;2023-06-05T00:57:16;9.60;99.90
8872;DHT22;4472;52.092;9.820;2023-06-05T01:00:04;9.50;99.90
8872;DHT22;4472;52.092;9.820;2023-06-05T01:02:53;9.50;99.90
8872;DHT22;4472;52.092;9.820;2023-06-05T01:05:44;9.40;99.90
8872;DHT22;4472;52.092;9.820;2023-06-05T01:08:34;9.40;99.90
8872;DHT22;4472;52.092;9.820;2023-06-05T01:11:32;9.30;99.90
8872;DHT22;4472;52.092;9.820;2023-06-05T01:14:22;9.30;99.90
8872;DHT22;4472;52.092;9.820;2023-06-05T01:17:09;9.30;99.90
8872;DHT22;4472;52.092;9.820;2023-06-05T01:19:57;9.30;99.90
8872;DHT22;4472;52.092;9.820;2023-06-05T01:22:49;9.30;99.90
8872;DHT22;4472;52.092;9.820;2023-06-05T01:25:37;9.30;99.90
8872;DHT22;4472;52.092;9.820;2023-06-05T01:28:29;9.30;99.90
8872;DHT22;4472;52.092;9.820;2023-06-05T01:31:20;9.30;99.90
8872;DHT22;4472;52.092;9.820;2023-06-05T01:34:08;9.30;99.90
8872;DHT22;4472;52.092;9.820;2023-06-05T01:37:00;9.30;99.90
8872;DHT22;4472;52.092;9.820;2023-06-05T01:39:50;9.20;99.90
8872;DHT22;4472;52.092;9.820;2023-06-05T01:42:38;9.20;99.90
8872;DHT22;4472;52.092;9.820;2023-06-05T01:45:27;9.20;99.90
8872;DHT22;4472;52.092;9.820;2023-06-05T01:48:15;9.20;99.90
8872;DHT22;4472;52.092;9.820;2023-06-05T01:51:03;9.20;99.90
8872;DHT22;4472;52.092;9.820;2023-06-05T01:53:50;9.20;99.90
8872;DHT22;4472;52.092;9.820;2023-06-05T01:56:39;9.20;99.90
8872;DHT22;4472;52.092;9.820;2023-06-05T01:59:28;9.10;99.90
8872;DHT22;4472;52.092;9.820;2023-06-05T02:02:15;9.10;99.90
8872;DHT22;4472;52.092;9.820;2023-06-05T02:05:05;9.00;99.90
8872;DHT22;4472;52.092;9.820;2023-06-05T02:07:52;9.00;99.90
8872;DHT22;4472;52.092;9.820;2023-06-05T02:10:41;9.00;99.90
8872;DHT22;4472;52.092;9.820;2023-06-05T02:13:31;9.00;99.90
8872;DHT22;4472;52.092;9.820;2023-06-05T02:16:19;9.00;99.90
8872;DHT22;4472;52.092;9.820;2023-06-05T02:19:06;9.00;99.90
8872;DHT22;4472;52.092;9.820;2023-06-05T02:21:53;9.00;99.90
8872;DHT22;4472;52.092;9.820;2023-06-05T02:24:40;8.90;99.90
8872;DHT22;4472;52.092;9.820;2023-06-05T02:27:28;8.90;99.90
8872;DHT22;4472;52.092;9.820;2023-06-05T02:30:17;8.80;99.90
8872;DHT22;4472;52.092;9.820;2023-06-05T02:33:04;8.80;99.90
8872;DHT22;4472;52.092;9.820;2023-06-05T02:35:51;8.80;99.90
8872;DHT22;4472;52.092;9.820;2023-06-05T02:38:39;8.70;99.90
8872;DHT22;4472;52.092;9.820;2023-06-05T02:41:26;8.70;99.90
8872;DHT22;4472;52.092;9.820;2023-06-05T02:44:13;8.60;99.90
8872;DHT22;4472;52.092;9.820;2023-06-05T02:47:01;8.60;99.90
8872;DHT22;4472;52.092;9.820;2023-06-05T02:49:49;8.60;99.90
8872;DHT22;4472;52.092;9.820;2023-06-05T02:52:36;8.60;99.90
8872;DHT22;4472;52.092;9.820;2023-06-05T02:55:25;8.50;99.90
8872;DHT22;4472;52.092;9.820;2023-06-05T02:58:15;8.50;99.90
8872;DHT22;4472;52.092;9.820;2023-06-05T03:01:03;8.40;99.90
8872;DHT22;4472;52.092;9.820;2023-06-05T03:03:55;8.40;99.90
8872;DHT22;4472;52.092;9.820;2023-06-05T03:06:42;8.40;99.90
8872;DHT22;4472;52.092;9.820;2023-06-05T03:09:31;8.40;99.90
8872;DHT22;4472;52.092;9.820;2023-06-05T03:12:18;9.50;99.90
8872;DHT22;4472;52.092;9.820;2023-06-05T03:15:06;8.40;99.90
8872;DHT22;4472;52.092;9.820;2023-06-05T03:17:53;8.50;99.90
8872;DHT22;4472;52.092;9.820;2023-06-05T03:20:41;8.40;99.90
8872;DHT22;4472;52.092;9.820;2023-06-05T03:23:29;8.40;99.90
8872;DHT22;4472;52.092;9.820;2023-06-05T03:26:16;8.40;99.90
8872;DHT22;4472;52.092;9.820;2023-06-05T03:29:04;8.40;99.90
8872;DHT22;4472;52.092;9.820;2023-06-05T03:31:51;8.30;99.90
8872;DHT22;4472;52.092;9.820;2023-06-05T03:34:38;8.30;99.90
8872;DHT22;4472;52.092;9.820;2023-06-05T03:37:29;8.30;99.90
8872;DHT22;4472;52.092;9.820;2023-06-05T03:40:17;8.30;99.90
8872;DHT22;4472;52.092;9.820;2023-06-05T03:43:04;8.30;99.90
8872;DHT22;4472;52.092;9.820;2023-06-05T03:45:51;8.30;99.90
8872;DHT22;4472;52.092;9.820;2023-06-05T03:48:39;8.30;99.90
8872;DHT22;4472;52.092;9.820;2023-06-05T03:51:26;8.40;99.90
8872;DHT22;4472;52.092;9.820;2023-06-05T03:54:16;8.50;99.90
8872;DHT22;4472;52.092;9.820;2023-06-05T03:57:04;8.50;99.90
8872;DHT22;4472;52.092;9.820;2023-06-05T03:59:55;8.40;99.90
8872;DHT22;4472;52.092;9.820;2023-06-05T04:02:42;8.50;99.90
8872;DHT22;4472;52.092;9.820;2023-06-05T04:05:29;8.50;99.90
8872;DHT22;4472;52.092;9.820;2023-06-05T04:08:17;8.50;99.90
8872;DHT22;4472;52.092;9.820;2023-06-05T04:11:05;8.60;99.90
8872;DHT22;4472;52.092;9.820;2023-06-05T04:13:52;8.60;99.90
8872;DHT22;4472;52.092;9.820;2023-06-05T04:16:40;8.70;99.90
8872;DHT22;4472;52.092;9.820;2023-06-05T04:19:28;8.70;99.90
8872;DHT22;4472;52.092;9.820;2023-06-05T04:22:16;8.80;99.90
8872;DHT22;4472;52.092;9.820;2023-06-05T04:25:03;8.80;99.90
8872;DHT22;4472;52.092;9.820;2023-06-05T04:27:51;8.90;99.90
8872;DHT22;4472;52.092;9.820;2023-06-05T04:30:39;9.00;99.90
8872;DHT22;4472;52.092;9.820;2023-06-05T04:33:26;9.10;99.90
8872;DHT22;4472;52.092;9.820;2023-06-05T04:36:13;9.20;99.90
8872;DHT22;4472;52.092;9.820;2023-06-05T04:39:00;9.20;99.90
8872;DHT22;4472;52.092;9.820;2023-06-05T04:41:49;9.30;99.90
8872;DHT22;4472;52.092;9.820;2023-06-05T04:44:38;9.40;99.90
8872;DHT22;4472;52.092;9.820;2023-06-05T04:47:25;9.50;99.90
8872;DHT22;4472;52.092;9.820;2023-06-05T04:50:22;9.60;99.90
8872;DHT22;4472;52.092;9.820;2023-06-05T04:53:10;9.70;99.90
8872;DHT22;4472;52.092;9.820;2023-06-05T04:55:57;9.80;99.90
8872;DHT22;4472;52.092;9.820;2023-06-05T04:58:47;9.90;99.90
8872;DHT22;4472;52.092;9.820;2023-06-05T05:01:37;9.90;99.90
8872;DHT22;4472;52.092;9.820;2023-06-05T05:04:26;10.10;99.90
8872;DHT22;4472;52.092;9.820;2023-06-05T05:07:13;10.20;99.90
8872;DHT22;4472;52.092;9.820;2023-06-05T05:10:02;10.30;99.90
8872;DHT22;4472;52.092;9.820;2023-06-05T05:12:49;10.50;99.90
8872;DHT22;4472;52.092;9.820;2023-06-05T05:15:36;10.60;99.90
8872;DHT22;4472;52.092;9.820;2023-06-05T05:18:25;10.70;99.90
8872;DHT22;4472;52.092;9.820;2023-06-05T05:21:14;10.90;99.90
8872;DHT22;4472;52.092;9.820;2023-06-05T05:24:03;10.90;99.90
8872;DHT22;4472;52.092;9.820;2023-06-05T05:32:27;11.30;99.90
8872;DHT22;4472;52.092;9.820;2023-06-05T05:35:17;12.70;99.90
8872;DHT22;4472;52.092;9.820;2023-06-05T05:38:04;11.60;99.90
8872;DHT22;4472;52.092;9.820;2023-06-05T05:40:52;11.80;99.90
8872;DHT22;4472;52.092;9.820;2023-06-05T05:43:39;11.90;99.90
8872;DHT22;4472;52.092;9.820;2023-06-05T05:46:26;12.20;99.90
8872;DHT22;4472;52.092;9.820;2023-06-05T05:49:13;12.40;99.90
8872;DHT22;4472;52.092;9.820;2023-06-05T05:52:02;12.70;99.90
8872;DHT22;4472;52.092;9.820;2023-06-05T05:54:49;12.60;99.90
8872;DHT22;4472;52.092;9.820;2023-06-05T06:00:25;12.90;99.90
8872;DHT22;4472;52.092;9.820;2023-06-05T06:03:15;13.00;99.90
8872;DHT22;4472;52.092;9.820;2023-06-05T06:06:03;13.20;99.90
8872;DHT22;4472;52.092;9.820;2023-06-05T06:08:54;13.30;99.90
8872;DHT22;4472;52.092;9.820;2023-06-05T06:11:42;13.50;99.90
8872;DHT22;4472;52.092;9.820;2023-06-05T06:14:29;13.60;99.90
8872;DHT22;4472;52.092;9.820;2023-06-05T06:17:16;13.70;99.90
8872;DHT22;4472;52.092;9.820;2023-06-05T06:20:04;13.70;99.90
8872;DHT22;4472;52.092;9.820;2023-06-05T06:22:52;13.90;99.90
8872;DHT22;4472;52.092;9.820;2023-06-05T06:25:41;14.10;99.90
8872;DHT22;4472;52.092;9.820;2023-06-05T06:28:28;14.10;99.90
8872;DHT22;4472;52.092;9.820;2023-06-05T06:31:15;14.40;99.90
8872;DHT22;4472;52.092;9.820;2023-06-05T06:36:50;14.40;99.90
8872;DHT22;4472;52.092;9.820;2023-06-05T06:39:38;14.60;99.90
8872;DHT22;4472;52.092;9.820;2023-06-05T06:42:26;14.80;99.90
8872;DHT22;4472;52.092;9.820;2023-06-05T06:45:13;14.90;99.90
8872;DHT22;4472;52.092;9.820;2023-06-05T06:48:01;15.00;99.90
8872;DHT22;4472;52.092;9.820;2023-06-05T06:50:48;15.10;99.90
8872;DHT22;4472;52.092;9.820;2023-06-05T06:53:35;15.10;99.90
8872;DHT22;4472;52.092;9.820;2023-06-05T06:56:22;15.30;99.90
8872;DHT22;4472;52.092;9.820;2023-06-05T06:59:14;15.40;99.90
8872;DHT22;4472;52.092;9.820;2023-06-05T07:02:09;15.50;99.90
8872;DHT22;4472;52.092;9.820;2023-06-05T07:04:57;15.60;99.90
8872;DHT22;4472;52.092;9.820;2023-06-05T07:10:31;15.80;99.90
8872;DHT22;4472;52.092;9.820;2023-06-05T07:13:20;16.00;99.90
8872;DHT22;4472;52.092;9.820;2023-06-05T07:16:09;16.00;99.90
8872;DHT22;4472;52.092;9.820;2023-06-05T07:18:56;16.00;99.90
8872;DHT22;4472;52.092;9.820;2023-06-05T07:21:43;16.10;99.90
8872;DHT22;4472;52.092;9.820;2023-06-05T07:24:32;16.20;99.90
8872;DHT22;4472;52.092;9.820;2023-06-05T07:27:21;16.20;99.90
8872;DHT22;4472;52.092;9.820;2023-06-05T07:30:09;16.30;99.90
8872;DHT22;4472;52.092;9.820;2023-06-05T07:32:57;16.40;99.90
8872;DHT22;4472;52.092;9.820;2023-06-05T07:35:44;16.50;99.90
8872;DHT22;4472;52.092;9.820;2023-06-05T07:38:34;16.70;99.90
8872;DHT22;4472;52.092;9.820;2023-06-05T07:41:21;16.90;99.90
8872;DHT22;4472;52.092;9.820;2023-06-05T07:44:10;17.00;99.90
8872;DHT22;4472;52.092;9.820;2023-06-05T07:46:57;17.10;99.90
8872;DHT22;4472;52.092;9.820;2023-06-05T07:49:56;17.20;99.90
8872;DHT22;4472;52.092;9.820;2023-06-05T07:52:44;17.20;99.90
8872;DHT22;4472;52.092;9.820;2023-06-05T07:55:31;17.20;99.90
8872;DHT22;4472;52.092;9.820;2023-06-05T07:58:18;17.20;99.90
8872;DHT22;4472;52.092;9.820;2023-06-05T08:01:06;17.30;99.90
8872;DHT22;4472;52.092;9.820;2023-06-05T08:03:54;17.40;99.90
8872;DHT22;4472;52.092;9.820;2023-06-05T08:06:42;17.70;99.90
8872;DHT22;4472;52.092;9.820;2023-06-05T08:09:31;17.70;99.90
8872;DHT22;4472;52.092;9.820;2023-06-05T08:12:19;17.90;99.90
8872;DHT22;4472;52.092;9.820;2023-06-05T08:15:07;18.00;99.90
8872;DHT22;4472;52.092;9.820;2023-06-05T08:17:54;18.20;99.90
8872;DHT22;4472;52.092;9.820;2023-06-05T08:20:41;18.40;99.90
8872;DHT22;4472;52.092;9.820;2023-06-05T08:23:30;18.50;99.90
8872;DHT22;4472;52.092;9.820;2023-06-05T08:26:18;18.50;99.90
8872;DHT22;4472;52.092;9.820;2023-06-05T08:29:05;18.60;99.90
8872;DHT22;4472;52.092;9.820;2023-06-05T08:31:53;18.70;99.90
8872;DHT22;4472;52.092;9.820;2023-06-05T08:34:40;18.60;99.90
8872;DHT22;4472;52.092;9.820;2023-06-05T08:37:27;18.80;99.90
8872;DHT22;4472;52.092;9.820;2023-06-05T08:40:16;18.90;99.90
8872;DHT22;4472;52.092;9.820;2023-06-05T08:43:05;19.00;99.90
8872;DHT22;4472;52.092;9.820;2023-06-05T08:45:55;18.90;99.90
8872;DHT22;4472;52.092;9.820;2023-06-05T08:48:44;19.10;99.90
8872;DHT22;4472;52.092;9.820;2023-06-05T08:51:31;19.20;99.90
8872;DHT22;4472;52.092;9.820;2023-06-05T08:54:19;19.40;99.90
8872;DHT22;4472;52.092;9.820;2023-06-05T08:59:57;19.60;99.90
8872;DHT22;4472;52.092;9.820;2023-06-05T09:02:44;19.70;99.90
8872;DHT22;4472;52.092;9.820;2023-06-05T09:05:33;19.80;99.90
8872;DHT22;4472;52.092;9.820;2023-06-05T09:08:28;19.90;99.10
8872;DHT22;4472;52.092;9.820;2023-06-05T09:11:23;20.00;98.20
8872;DHT22;4472;52.092;9.820;2023-06-05T09:14:12;20.20;99.90
8872;DHT22;4472;52.092;9.820;2023-06-05T09:17:00;20.30;97.80
8872;DHT22;4472;52.092;9.820;2023-06-05T09:19:48;20.40;98.40
8872;DHT22;4472;52.092;9.820;2023-06-05T09:22:36;20.60;96.30
8872;DHT22;4472;52.092;9.820;2023-06-05T09:25:24;20.70;96.70
8872;DHT22;4472;52.092;9.820;2023-06-05T09:28:11;20.80;97.30
8872;DHT22;4472;52.092;9.820;2023-06-05T09:31:01;20.90;94.50
8872;DHT22;4472;52.092;9.820;2023-06-05T09:33:54;21.00;94.20
8872;DHT22;4472;52.092;9.820;2023-06-05T09:36:45;21.10;94.20
8872;DHT22;4472;52.092;9.820;2023-06-05T09:39:33;21.20;93.50
8872;DHT22;4472;52.092;9.820;2023-06-05T09:42:31;21.20;92.10
8872;DHT22;4472;52.092;9.820;2023-06-05T09:45:18;21.40;91.60
8872;DHT22;4472;52.092;9.820;2023-06-05T09:48:14;21.40;91.50
8872;DHT22;4472;52.092;9.820;2023-06-05T09:51:09;21.50;90.80
8872;DHT22;4472;52.092;9.820;2023-06-05T09:53:58;21.60;92.00
8872;DHT22;4472;52.092;9.820;2023-06-05T09:56:46;21.80;91.00
8872;DHT22;4472;52.092;9.820;2023-06-05T09:59:40;21.80;91.40
8872;DHT22;4472;52.092;9.820;2023-06-05T10:02:33;21.90;96.30
8872;DHT22;4472;52.092;9.820;2023-06-05T10:10:58;22.00;78.40
8872;DHT22;4472;52.092;9.820;2023-06-05T10:13:46;22.20;78.50
8872;DHT22;4472;52.092;9.820;2023-06-05T10:16:34;22.20;78.80
8872;DHT22;4472;52.092;9.820;2023-06-05T10:19:21;22.30;78.90
8872;DHT22;4472;52.092;9.820;2023-06-05T10:22:12;22.40;72.90
8872;DHT22;4472;52.092;9.820;2023-06-05T10:25:04;22.50;72.70
8872;DHT22;4472;52.092;9.820;2023-06-05T10:28:01;22.40;73.80
8872;DHT22;4472;52.092;9.820;2023-06-05T10:31:10;22.50;72.80
8872;DHT22;4472;52.092;9.820;2023-06-05T10:34:06;22.40;72.40
8872;DHT22;4472;52.092;9.820;2023-06-05T10:40:15;22.50;72.40
8872;DHT22;4472;52.092;9.820;2023-06-05T10:43:29;22.40;70.40
8872;DHT22;4472;52.092;9.820;2023-06-05T10:46:30;22.40;70.70
8872;DHT22;4472;52.092;9.820;2023-06-05T10:49:17;22.60;68.70
8872;DHT22;4472;52.092;9.820;2023-06-05T10:52:05;22.60;70.00
8872;DHT22;4472;52.092;9.820;2023-06-05T10:55:14;22.60;70.80
8872;DHT22;4472;52.092;9.820;2023-06-05T10:58:06;22.70;71.00
8872;DHT22;4472;52.092;9.820;2023-06-05T11:01:16;22.70;71.50
8872;DHT22;4472;52.092;9.820;2023-06-05T11:04:04;22.70;68.80
8872;DHT22;4472;52.092;9.820;2023-06-05T11:07:15;22.70;70.50
8872;DHT22;4472;52.092;9.820;2023-06-05T11:10:07;22.80;70.30
8872;DHT22;4472;52.092;9.820;2023-06-05T11:13:05;22.80;69.70
8872;DHT22;4472;52.092;9.820;2023-06-05T11:15:53;23.00;68.10
8872;DHT22;4472;52.092;9.820;2023-06-05T11:18:42;23.00;68.70
8872;DHT22;4472;52.092;9.820;2023-06-05T11:25:25;23.00;68.20
8872;DHT22;4472;52.092;9.820;2023-06-05T11:28:37;22.90;66.30
8872;DHT22;4472;52.092;9.820;2023-06-05T11:31:28;22.90;67.00
8872;DHT22;4472;52.092;9.820;2023-06-05T11:34:18;23.00;67.50
8872;DHT22;4472;52.092;9.820;2023-06-05T11:37:15;23.00;67.70
8872;DHT22;4472;52.092;9.820;2023-06-05T11:40:04;23.10;66.30
8872;DHT22;4472;52.092;9.820;2023-06-05T11:43:02;23.20;67.50
8872;DHT22;4472;52.092;9.820;2023-06-05T11:45:52;23.10;67.30
8872;DHT22;4472;52.092;9.820;2023-06-05T11:48:46;23.10;66.90
8872;DHT22;4472;52.092;9.820;2023-06-05T11:51:33;23.00;66.30
8872;DHT22;4472;52.092;9.820;2023-06-05T11:54:25;23.00;65.20
8872;DHT22;4472;52.092;9.820;2023-06-05T11:57:12;23.00;66.40
8872;DHT22;4472;52.092;9.820;2023-06-05T11:59:59;23.10;66.00
8872;DHT22;4472;52.092;9.820;2023-06-05T12:02:48;23.10;66.30
8872;DHT22;4472;52.092;9.820;2023-06-05T12:05:36;23.00;65.90
8872;DHT22;4472;52.092;9.820;2023-06-05T12:08:23;23.00;63.20
8872;DHT22;4472;52.092;9.820;2023-06-05T12:11:22;23.10;66.80
8872;DHT22;4472;52.092;9.820;2023-06-05T12:14:10;23.20;65.30
8872;DHT22;4472;52.092;9.820;2023-06-05T12:16:58;23.30;67.60
8872;DHT22;4472;52.092;9.820;2023-06-05T12:19:53;23.40;66.80
8872;DHT22;4472;52.092;9.820;2023-06-05T12:22:41;23.30;66.00
8872;DHT22;4472;52.092;9.820;2023-06-05T12:25:29;23.20;64.20
8872;DHT22;4472;52.092;9.820;2023-06-05T12:28:19;23.20;66.10
8872;DHT22;4472;52.092;9.820;2023-06-05T12:31:32;23.30;65.00
8872;DHT22;4472;52.092;9.820;2023-06-05T12:34:38;23.30;62.70
8872;DHT22;4472;52.092;9.820;2023-06-05T12:37:28;23.50;64.20
8872;DHT22;4472;52.092;9.820;2023-06-05T12:40:17;23.60;65.40
8872;DHT22;4472;52.092;9.820;2023-06-05T12:43:16;23.50;65.20
8872;DHT22;4472;52.092;9.820;2023-06-05T12:46:05;23.50;64.70
8872;DHT22;4472;52.092;9.820;2023-06-05T12:48:53;23.60;64.60
8872;DHT22;4472;52.092;9.820;2023-06-05T12:51:41;23.50;63.00
8872;DHT22;4472;52.092;9.820;2023-06-05T12:54:30;23.40;64.40
8872;DHT22;4472;52.092;9.820;2023-06-05T12:57:18;23.40;64.20
8872;DHT22;4472;52.092;9.820;2023-06-05T13:00:07;23.40;63.50
8872;DHT22;4472;52.092;9.820;2023-06-05T13:02:58;23.40;62.30
8872;DHT22;4472;52.092;9.820;2023-06-05T13:05:46;23.40;61.80
8872;DHT22;4472;52.092;9.820;2023-06-05T13:08:33;23.40;62.20
8872;DHT22;4472;52.092;9.820;2023-06-05T13:11:22;23.40;63.70
8872;DHT22;4472;52.092;9.820;2023-06-05T13:14:09;23.30;63.50
8872;DHT22;4472;52.092;9.820;2023-06-05T13:16:56;23.30;62.00
8872;DHT22;4472;52.092;9.820;2023-06-05T13:19:43;23.40;61.70
8872;DHT22;4472;52.092;9.820;2023-06-05T13:22:31;23.50;60.40
8872;DHT22;4472;52.092;9.820;2023-06-05T13:25:18;23.70;58.50
8872;DHT22;4472;52.092;9.820;2023-06-05T13:28:06;23.70;60.50
8872;DHT22;4472;52.092;9.820;2023-06-05T13:30:53;23.60;59.10
8872;DHT22;4472;52.092;9.820;2023-06-05T13:33:41;23.60;58.70
8872;DHT22;4472;52.092;9.820;2023-06-05T13:36:28;23.60;59.70
8872;DHT22;4472;52.092;9.820;2023-06-05T13:39:16;23.60;59.10
8872;DHT22;4472;52.092;9.820;2023-06-05T13:42:03;23.70;58.90
8872;DHT22;4472;52.092;9.820;2023-06-05T13:44:52;23.80;59.10
8872;DHT22;4472;52.092;9.820;2023-06-05T13:47:39;23.70;59.10
8872;DHT22;4472;52.092;9.820;2023-06-05T13:50:26;23.80;57.70
8872;DHT22;4472;52.092;9.820;2023-06-05T13:53:13;23.80;58.20
8872;DHT22;4472;52.092;9.820;2023-06-05T13:56:00;23.70;60.30
8872;DHT22;4472;52.092;9.820;2023-06-05T13:58:48;23.70;59.40
8872;DHT22;4472;52.092;9.820;2023-06-05T14:01:37;23.60;60.00
8872;DHT22;4472;52.092;9.820;2023-06-05T14:04:25;23.60;59.90
8872;DHT22;4472;52.092;9.820;2023-06-05T14:07:12;23.60;59.60
8872;DHT22;4472;52.092;9.820;2023-06-05T14:09:59;23.70;59.70
8872;DHT22;4472;52.092;9.820;2023-06-05T14:12:46;23.80;60.00
8872;DHT22;4472;52.092;9.820;2023-06-05T14:15:34;23.90;60.50
8872;DHT22;4472;52.092;9.820;2023-06-05T14:18:25;23.90;59.00
8872;DHT22;4472;52.092;9.820;2023-06-05T14:21:12;23.90;59.60
8872;DHT22;4472;52.092;9.820;2023-06-05T14:23:59;23.90;59.20
8872;DHT22;4472;52.092;9.820;2023-06-05T14:26:46;23.90;59.00
8872;DHT22;4472;52.092;9.820;2023-06-05T14:29:34;23.90;58.50
8872;DHT22;4472;52.092;9.820;2023-06-05T14:32:21;23.80;60.00
8872;DHT22;4472;52.092;9.820;2023-06-05T14:35:10;23.80;59.50
8872;DHT22;4472;52.092;9.820;2023-06-05T14:37:57;23.90;59.40
8872;DHT22;4472;52.092;9.820;2023-06-05T14:40:44;23.90;60.20
8872;DHT22;4472;52.092;9.820;2023-06-05T14:43:31;23.80;58.80
8872;DHT22;4472;52.092;9.820;2023-06-05T14:46:19;23.80;59.40
8872;DHT22;4472;52.092;9.820;2023-06-05T14:49:06;23.70;59.00
8872;DHT22;4472;52.092;9.820;2023-06-05T14:51:54;23.80;57.80
8872;DHT22;4472;52.092;9.820;2023-06-05T14:54:41;23.80;59.80
8872;DHT22;4472;52.092;9.820;2023-06-05T14:57:29;23.90;59.20
8872;DHT22;4472;52.092;9.820;2023-06-05T15:00:17;23.80;59.80
8872;DHT22;4472;52.092;9.820;2023-06-05T15:03:04;23.80;58.10
8872;DHT22;4472;52.092;9.820;2023-06-05T15:05:51;23.70;57.80
8872;DHT22;4472;52.092;9.820;2023-06-05T15:08:41;23.70;57.40
8872;DHT22;4472;52.092;9.820;2023-06-05T15:11:28;23.80;56.90
8872;DHT22;4472;52.092;9.820;2023-06-05T15:14:16;23.90;57.60
8872;DHT22;4472;52.092;9.820;2023-06-05T15:17:03;23.90;58.00
8872;DHT22;4472;52.092;9.820;2023-06-05T15:19:50;23.90;57.10
8872;DHT22;4472;52.092;9.820;2023-06-05T15:22:37;23.90;58.00
8872;DHT22;4472;52.092;9.820;2023-06-05T15:25:26;23.90;57.80
8872;DHT22;4472;52.092;9.820;2023-06-05T15:28:13;23.90;56.50
8872;DHT22;4472;52.092;9.820;2023-06-05T15:31:01;24.00;56.70
8872;DHT22;4472;52.092;9.820;2023-06-05T15:33:48;24.10;55.50
8872;DHT22;4472;52.092;9.820;2023-06-05T15:36:35;24.20;56.30
8872;DHT22;4472;52.092;9.820;2023-06-05T15:39:22;24.20;57.50
8872;DHT22;4472;52.092;9.820;2023-06-05T15:42:11;24.20;56.40
8872;DHT22;4472;52.092;9.820;2023-06-05T15:45:08;24.10;56.30
8872;DHT22;4472;52.092;9.820;2023-06-05T15:47:55;24.10;56.80
8872;DHT22;4472;52.092;9.820;2023-06-05T15:50:42;24.00;56.30
8872;DHT22;4472;52.092;9.820;2023-06-05T15:53:29;24.00;56.10
8872;DHT22;4472;52.092;9.820;2023-06-05T15:56:16;24.00;55.30
8872;DHT22;4472;52.092;9.820;2023-06-05T15:59:05;24.00;54.60
8872;DHT22;4472;52.092;9.820;2023-06-05T16:01:52;24.00;55.40
8872;DHT22;4472;52.092;9.820;2023-06-05T16:04:39;24.00;55.90
8872;DHT22;4472;52.092;9.820;2023-06-05T16:07:26;24.10;55.10
8872;DHT22;4472;52.092;9.820;2023-06-05T16:10:13;24.10;55.10
8872;DHT22;4472;52.092;9.820;2023-06-05T16:13:00;24.10;55.90
8872;DHT22;4472;52.092;9.820;2023-06-05T16:15:49;24.10;55.90
8872;DHT22;4472;52.092;9.820;2023-06-05T16:18:37;24.10;56.70
8872;DHT22;4472;52.092;9.820;2023-06-05T16:21:24;24.00;56.60
8872;DHT22;4472;52.092;9.820;2023-06-05T16:24:11;24.00;56.60
8872;DHT22;4472;52.092;9.820;2023-06-05T16:26:59;24.00;56.20
8872;DHT22;4472;52.092;9.820;2023-06-05T16:29:46;23.90;55.20
8872;DHT22;4472;52.092;9.820;2023-06-05T16:32:35;24.00;54.30
8872;DHT22;4472;52.092;9.820;2023-06-05T16:35:22;24.00;55.30
8872;DHT22;4472;52.092;9.820;2023-06-05T16:38:09;23.90;54.80
8872;DHT22;4472;52.092;9.820;2023-06-05T16:40:56;23.90;55.00
8872;DHT22;4472;52.092;9.820;2023-06-05T16:43:43;23.90;54.50
8872;DHT22;4472;52.092;9.820;2023-06-05T16:46:30;23.70;54.00
8872;DHT22;4472;52.092;9.820;2023-06-05T16:49:19;23.70;54.10
8872;DHT22;4472;52.092;9.820;2023-06-05T16:52:06;23.70;53.50
8872;DHT22;4472;52.092;9.820;2023-06-05T16:54:53;23.70;54.50
8872;DHT22;4472;52.092;9.820;2023-06-05T16:57:40;23.70;55.80
8872;DHT22;4472;52.092;9.820;2023-06-05T17:00:29;23.70;54.50
8872;DHT22;4472;52.092;9.820;2023-06-05T17:03:16;23.70;55.00
8872;DHT22;4472;52.092;9.820;2023-06-05T17:06:06;23.70;55.30
8872;DHT22;4472;52.092;9.820;2023-06-05T17:08:53;23.70;54.70
8872;DHT22;4472;52.092;9.820;2023-06-05T17:11:40;23.70;54.40
8872;DHT22;4472;52.092;9.820;2023-06-05T17:14:27;23.70;55.70
8872;DHT22;4472;52.092;9.820;2023-06-05T17:17:14;23.70;55.30
8872;DHT22;4472;52.092;9.820;2023-06-05T17:20:02;23.60;55.60
8872;DHT22;4472;52.092;9.820;2023-06-05T17:22:51;23.60;55.20
8872;DHT22;4472;52.092;9.820;2023-06-05T17:25:38;23.50;55.70
8872;DHT22;4472;52.092;9.820;2023-06-05T17:28:25;23.30;55.90
8872;DHT22;4472;52.092;9.820;2023-06-05T17:31:12;23.30;55.20
8872;DHT22;4472;52.092;9.820;2023-06-05T17:33:59;23.30;56.50
8872;DHT22;4472;52.092;9.820;2023-06-05T17:36:46;23.20;56.70
8872;DHT22;4472;52.092;9.820;2023-06-05T17:39:35;23.20;57.40
8872;DHT22;4472;52.092;9.820;2023-06-05T17:42:22;23.10;57.00
8872;DHT22;4472;52.092;9.820;2023-06-05T17:45:10;23.00;57.50
8872;DHT22;4472;52.092;9.820;2023-06-05T17:47:57;22.90;57.50
8872;DHT22;4472;52.092;9.820;2023-06-05T17:50:44;22.80;57.00
8872;DHT22;4472;52.092;9.820;2023-06-05T17:53:31;22.70;57.90
8872;DHT22;4472;52.092;9.820;2023-06-05T17:56:20;22.70;58.10
8872;DHT22;4472;52.092;9.820;2023-06-05T17:59:08;22.60;59.00
8872;DHT22;4472;52.092;9.820;2023-06-05T18:01:55;22.50;60.30
8872;DHT22;4472;52.092;9.820;2023-06-05T18:04:44;22.40;61.20
8872;DHT22;4472;52.092;9.820;2023-06-05T18:07:31;22.30;60.30
8872;DHT22;4472;52.092;9.820;2023-06-05T18:10:19;22.20;61.40
8872;DHT22;4472;52.092;9.820;2023-06-05T18:13:07;22.10;64.20
8872;DHT22;4472;52.092;9.820;2023-06-05T18:15:54;22.00;64.40
8872;DHT22;4472;52.092;9.820;2023-06-05T18:18:41;21.90;65.10
8872;DHT22;4472;52.092;9.820;2023-06-05T18:21:29;21.80;65.00
8872;DHT22;4472;52.092;9.820;2023-06-05T18:24:16;21.70;66.10
8872;DHT22;4472;52.092;9.820;2023-06-05T18:27:05;21.50;66.70
8872;DHT22;4472;52.092;9.820;2023-06-05T18:29:54;21.50;65.50
8872;DHT22;4472;52.092;9.820;2023-06-05T18:32:41;21.40;65.60
8872;DHT22;4472;52.092;9.820;2023-06-05T18:35:28;21.40;66.40
8872;DHT22;4472;52.092;9.820;2023-06-05T18:38:16;21.30;68.40
8872;DHT22;4472;52.092;9.820;2023-06-05T18:41:03;21.20;72.40
8872;DHT22;4472;52.092;9.820;2023-06-05T18:43:50;21.10;74.80
8872;DHT22;4472;52.092;9.820;2023-06-05T18:46:39;20.90;77.00
8872;DHT22;4472;52.092;9.820;2023-06-05T18:49:26;20.80;78.20
8872;DHT22;4472;52.092;9.820;2023-06-05T18:52:13;20.60;79.40
8872;DHT22;4472;52.092;9.820;2023-06-05T18:55:00;20.50;79.20